Aeroporto :
LOGIN :

Iscrizione | Disclaimer

   EN    FR    IT 

 










Sommario :    VFR   VFR Marginale   IFR   IFR Intensivo   IFR Molto Intensivo
Visibilità : 
Base nubi : 
>= 8 km
>= 3000ft
5 / 8 km
1000 / 3000 ft
1500m / 5 km
500 / 1000 ft
800 / 1500m
200 / 500 ft
< 800m
< 200 ft
Simboli :   Temporali  Nebbia  Neve Forte  Precipitazioni Forti  Vento > 20 kt
SIGMETs :   Varie  Temporali  Ghiacco  Turbolenza  Onda orograficha  Ceneri Vulcaniche






- Altitudine del aeroporto : 587 ft
- Codice IATA : XCR


LFOK - Chalons Vatry

ULTIMO METAR :
  • 181100Z AUTO 24023KT 9999 BKN023 BKN029 BKN110 14/10 Q1010 BECMG 21015G25KT

METARs OBSOLETI :
  • 181030Z AUTO 24018KT 9999 FEW022 BKN100 13/10 Q1010 BECMG 21015G25KT
  • 181000Z AUTO 23015KT CAVOK 13/10 Q1010 BECMG 21015G25KT
  • 180930Z AUTO 23018KT 9999 FEW026 BKN076 OVC086 12/10 Q1010 BECMG 21015G25KT
  • 180900Z AUTO 22014KT CAVOK 11/10 Q1009 TEMPO 2000 SHRA BKN015CB BKN020 OVC030 BECMG 21015G25KT

TAF TAF LFOK
Valido dal 18 a 06 ore il 19 a 06 ore UTC


180500Z 1806/1906 21015G25KT 9999 BKN020 BKN030
TEMPO 1806/1810 25020G35KT 2000 SHRA BKN015CB BKN020 OVC030
PROB30
TEMPO 1807/1809 TSRA
BECMG 1816/1818 18015KT
BECMG 1900/1902 BKN013 OVC030
TEMPO 1904/1906 4000 RA SCT007 BKN013 OVC030



MetMap, La meteo Aeronautica in un colpo d'occhio ! - Copyright ORBIFLY Dicembre 2007 - Disclaimer

ORBIFLY MET'MAP TEAM :

Programmazione e sviluppo : Alexandra Zaïnal
Concezione e sviluppo : Baudouin d'Aumeries
Co-Programmazione e sviluppo : Marc-Olivier Méhu
Supporto tecnico e logistico : Manuel Goepfert
Aiuto per la traduzione : Arnaldo La Scala

Contatto : metmap@orbifly.com




FONTI E CREDITI :

   NOAA